sensor_id;sensor_type;location;lat;lon;timestamp;noise_LAeq;noise_LA_min;noise_LA_max;noise_LA01;noise_LA95
69668;Laerm;66534;52.370;4.832;2023-03-23T00:00:01;45.05;42.54;49.20;;
69668;Laerm;66534;52.370;4.832;2023-03-23T00:00:31;45.45;43.39;49.62;;
69668;Laerm;66534;52.370;4.832;2023-03-23T00:01:04;46.06;42.63;50.71;;
69668;Laerm;66534;52.370;4.832;2023-03-23T00:01:34;47.36;42.81;59.73;;
69668;Laerm;66534;52.370;4.832;2023-03-23T00:02:07;44.65;41.81;49.01;;
69668;Laerm;66534;52.370;4.832;2023-03-23T00:02:37;44.38;42.24;50.80;;
69668;Laerm;66534;52.370;4.832;2023-03-23T00:03:08;45.77;41.80;55.70;;
69668;Laerm;66534;52.370;4.832;2023-03-23T00:03:40;46.57;44.10;56.09;;
69668;Laerm;66534;52.370;4.832;2023-03-23T00:04:11;47.58;43.99;53.35;;
69668;Laerm;66534;52.370;4.832;2023-03-23T00:04:42;48.40;43.66;61.75;;
69668;Laerm;66534;52.370;4.832;2023-03-23T00:05:13;45.60;42.84;55.07;;
69668;Laerm;66534;52.370;4.832;2023-03-23T00:05:43;44.69;41.53;52.05;;
69668;Laerm;66534;52.370;4.832;2023-03-23T00:06:20;45.24;42.87;48.73;;
69668;Laerm;66534;52.370;4.832;2023-03-23T00:06:51;43.74;41.08;47.31;;
69668;Laerm;66534;52.370;4.832;2023-03-23T00:07:23;46.26;42.88;59.94;;
69668;Laerm;66534;52.370;4.832;2023-03-23T00:07:57;45.89;42.85;53.36;;
69668;Laerm;66534;52.370;4.832;2023-03-23T00:08:34;45.29;41.70;49.25;;
69668;Laerm;66534;52.370;4.832;2023-03-23T00:09:09;43.64;41.96;48.28;;
69668;Laerm;66534;52.370;4.832;2023-03-23T00:09:40;45.73;41.52;54.96;;
69668;Laerm;66534;52.370;4.832;2023-03-23T00:10:11;46.08;42.51;57.06;;
69668;Laerm;66534;52.370;4.832;2023-03-23T00:10:41;47.92;43.04;58.57;;
69668;Laerm;66534;52.370;4.832;2023-03-23T00:11:17;44.86;41.81;54.68;;
69668;Laerm;66534;52.370;4.832;2023-03-23T00:11:50;45.50;41.85;54.28;;
69668;Laerm;66534;52.370;4.832;2023-03-23T00:12:28;45.71;42.35;53.24;;
69668;Laerm;66534;52.370;4.832;2023-03-23T00:13:03;44.40;41.33;51.26;;
69668;Laerm;66534;52.370;4.832;2023-03-23T00:13:34;45.28;42.11;63.15;;
69668;Laerm;66534;52.370;4.832;2023-03-23T00:14:05;49.79;43.68;59.02;;
69668;Laerm;66534;52.370;4.832;2023-03-23T00:14:35;48.83;43.00;56.58;;
69668;Laerm;66534;52.370;4.832;2023-03-23T00:15:11;45.13;41.55;50.35;;
69668;Laerm;66534;52.370;4.832;2023-03-23T00:15:43;49.65;42.85;68.13;;
69668;Laerm;66534;52.370;4.832;2023-03-23T00:16:14;47.21;44.15;57.76;;
69668;Laerm;66534;52.370;4.832;2023-03-23T00:16:48;46.76;42.94;51.60;;
69668;Laerm;66534;52.370;4.832;2023-03-23T00:17:19;45.95;43.51;52.06;;
69668;Laerm;66534;52.370;4.832;2023-03-23T00:17:49;44.57;42.13;48.21;;
69668;Laerm;66534;52.370;4.832;2023-03-23T00:18:21;45.56;40.82;53.98;;
69668;Laerm;66534;52.370;4.832;2023-03-23T00:18:51;44.64;41.70;49.60;;
69668;Laerm;66534;52.370;4.832;2023-03-23T00:19:22;44.25;42.09;48.54;;
69668;Laerm;66534;52.370;4.832;2023-03-23T00:19:53;48.27;43.30;54.11;;
69668;Laerm;66534;52.370;4.832;2023-03-23T00:20:23;43.31;41.32;48.40;;
69668;Laerm;66534;52.370;4.832;2023-03-23T00:20:56;43.94;41.58;47.74;;
69668;Laerm;66534;52.370;4.832;2023-03-23T00:21:30;44.89;41.03;51.19;;
69668;Laerm;66534;52.370;4.832;2023-03-23T00:22:04;46.75;44.29;51.85;;
69668;Laerm;66534;52.370;4.832;2023-03-23T00:22:37;43.96;41.13;54.88;;
69668;Laerm;66534;52.370;4.832;2023-03-23T00:23:08;44.56;41.29;50.06;;
69668;Laerm;66534;52.370;4.832;2023-03-23T00:23:39;45.21;42.05;48.66;;
69668;Laerm;66534;52.370;4.832;2023-03-23T00:24:11;47.37;42.75;57.03;;
69668;Laerm;66534;52.370;4.832;2023-03-23T00:24:42;47.71;42.88;52.57;;
69668;Laerm;66534;52.370;4.832;2023-03-23T00:25:13;45.53;41.21;52.12;;
69668;Laerm;66534;52.370;4.832;2023-03-23T00:25:45;45.57;43.07;52.37;;
69668;Laerm;66534;52.370;4.832;2023-03-23T00:26:15;45.12;42.33;49.04;;
69668;Laerm;66534;52.370;4.832;2023-03-23T00:26:47;50.04;45.12;55.96;;
69668;Laerm;66534;52.370;4.832;2023-03-23T00:27:18;46.04;42.03;55.13;;
69668;Laerm;66534;52.370;4.832;2023-03-23T00:27:49;42.58;40.15;48.54;;
69668;Laerm;66534;52.370;4.832;2023-03-23T00:28:20;42.18;39.03;50.26;;
69668;Laerm;66534;52.370;4.832;2023-03-23T00:28:57;44.30;40.47;60.77;;
69668;Laerm;66534;52.370;4.832;2023-03-23T00:29:30;43.07;40.51;51.62;;
69668;Laerm;66534;52.370;4.832;2023-03-23T00:30:02;43.81;40.28;48.70;;
69668;Laerm;66534;52.370;4.832;2023-03-23T00:30:34;44.65;40.79;51.75;;
69668;Laerm;66534;52.370;4.832;2023-03-23T00:31:06;43.22;40.64;48.88;;
69668;Laerm;66534;52.370;4.832;2023-03-23T00:31:38;47.20;41.49;56.46;;
69668;Laerm;66534;52.370;4.832;2023-03-23T00:32:08;45.34;42.15;51.34;;
69668;Laerm;66534;52.370;4.832;2023-03-23T00:32:42;46.10;42.00;55.99;;
69668;Laerm;66534;52.370;4.832;2023-03-23T00:33:13;44.25;40.67;50.27;;
69668;Laerm;66534;52.370;4.832;2023-03-23T00:33:44;45.82;42.23;56.34;;
69668;Laerm;66534;52.370;4.832;2023-03-23T00:34:16;45.77;42.25;52.39;;
69668;Laerm;66534;52.370;4.832;2023-03-23T00:34:50;44.45;40.96;51.51;;
69668;Laerm;66534;52.370;4.832;2023-03-23T00:35:20;45.86;41.92;53.95;;
69668;Laerm;66534;52.370;4.832;2023-03-23T00:35:50;43.45;40.00;49.44;;
69668;Laerm;66534;52.370;4.832;2023-03-23T00:36:22;42.25;39.74;52.47;;
69668;Laerm;66534;52.370;4.832;2023-03-23T00:36:54;41.79;39.68;46.82;;
69668;Laerm;66534;52.370;4.832;2023-03-23T00:37:27;43.77;39.72;48.65;;
69668;Laerm;66534;52.370;4.832;2023-03-23T00:37:57;42.27;39.31;48.79;;
69668;Laerm;66534;52.370;4.832;2023-03-23T00:38:28;42.79;39.47;51.95;;
69668;Laerm;66534;52.370;4.832;2023-03-23T00:38:59;44.79;41.08;54.90;;
69668;Laerm;66534;52.370;4.832;2023-03-23T00:39:30;44.26;41.11;48.86;;
69668;Laerm;66534;52.370;4.832;2023-03-23T00:40:02;44.16;40.39;49.42;;
69668;Laerm;66534;52.370;4.832;2023-03-23T00:40:39;44.39;41.41;49.05;;
69668;Laerm;66534;52.370;4.832;2023-03-23T00:41:09;46.52;42.49;55.15;;
69668;Laerm;66534;52.370;4.832;2023-03-23T00:41:42;45.09;42.10;52.58;;
69668;Laerm;66534;52.370;4.832;2023-03-23T00:42:14;43.53;41.01;53.02;;
69668;Laerm;66534;52.370;4.832;2023-03-23T00:42:45;43.47;40.72;51.96;;
69668;Laerm;66534;52.370;4.832;2023-03-23T00:43:17;43.06;39.78;51.21;;
69668;Laerm;66534;52.370;4.832;2023-03-23T00:43:48;44.49;41.39;53.48;;
69668;Laerm;66534;52.370;4.832;2023-03-23T00:44:19;45.81;40.50;55.46;;
69668;Laerm;66534;52.370;4.832;2023-03-23T00:44:53;43.70;40.37;47.15;;
69668;Laerm;66534;52.370;4.832;2023-03-23T00:45:30;43.57;40.63;47.38;;
69668;Laerm;66534;52.370;4.832;2023-03-23T00:46:00;43.70;40.15;58.22;;
69668;Laerm;66534;52.370;4.832;2023-03-23T00:46:31;42.77;39.71;50.61;;
69668;Laerm;66534;52.370;4.832;2023-03-23T00:47:02;43.35;40.56;47.43;;
69668;Laerm;66534;52.370;4.832;2023-03-23T00:47:33;44.24;41.01;49.17;;
69668;Laerm;66534;52.370;4.832;2023-03-23T00:48:06;44.42;40.95;60.42;;
69668;Laerm;66534;52.370;4.832;2023-03-23T00:48:37;43.30;40.62;51.00;;
69668;Laerm;66534;52.370;4.832;2023-03-23T00:49:16;43.35;40.16;53.32;;
69668;Laerm;66534;52.370;4.832;2023-03-23T00:49:48;47.45;40.82;58.66;;
69668;Laerm;66534;52.370;4.832;2023-03-23T00:50:20;48.25;40.18;57.44;;
69668;Laerm;66534;52.370;4.832;2023-03-23T00:50:51;41.12;38.78;45.43;;
69668;Laerm;66534;52.370;4.832;2023-03-23T00:51:23;44.81;40.38;54.85;;
69668;Laerm;66534;52.370;4.832;2023-03-23T00:51:57;40.57;38.68;45.15;;
69668;Laerm;66534;52.370;4.832;2023-03-23T00:52:28;41.11;38.73;48.21;;
69668;Laerm;66534;52.370;4.832;2023-03-23T00:52:59;41.74;39.60;49.16;;
69668;Laerm;66534;52.370;4.832;2023-03-23T00:53:29;44.20;40.62;49.58;;
69668;Laerm;66534;52.370;4.832;2023-03-23T00:54:00;45.20;40.77;48.99;;
69668;Laerm;66534;52.370;4.832;2023-03-23T00:54:31;44.55;40.76;55.84;;
69668;Laerm;66534;52.370;4.832;2023-03-23T00:55:01;46.91;41.23;61.02;;
69668;Laerm;66534;52.370;4.832;2023-03-23T00:55:32;41.20;38.80;45.71;;
69668;Laerm;66534;52.370;4.832;2023-03-23T00:56:04;42.27;38.14;53.72;;
69668;Laerm;66534;52.370;4.832;2023-03-23T00:56:35;41.97;39.13;47.04;;
69668;Laerm;66534;52.370;4.832;2023-03-23T00:57:06;44.78;41.27;53.09;;
69668;Laerm;66534;52.370;4.832;2023-03-23T00:57:36;42.00;38.89;48.78;;
69668;Laerm;66534;52.370;4.832;2023-03-23T00:58:07;41.34;38.53;49.32;;
69668;Laerm;66534;52.370;4.832;2023-03-23T00:58:37;44.31;39.49;52.07;;
69668;Laerm;66534;52.370;4.832;2023-03-23T00:59:08;40.67;38.28;45.94;;
69668;Laerm;66534;52.370;4.832;2023-03-23T00:59:39;42.31;39.02;54.65;;
69668;Laerm;66534;52.370;4.832;2023-03-23T01:00:10;41.41;38.47;47.58;;
69668;Laerm;66534;52.370;4.832;2023-03-23T01:00:41;42.58;38.73;50.73;;
69668;Laerm;66534;52.370;4.832;2023-03-23T01:01:12;45.02;40.09;51.64;;
69668;Laerm;66534;52.370;4.832;2023-03-23T01:01:43;42.61;37.82;49.79;;
69668;Laerm;66534;52.370;4.832;2023-03-23T01:02:13;44.70;38.94;65.13;;
69668;Laerm;66534;52.370;4.832;2023-03-23T01:02:44;44.56;40.05;49.76;;
69668;Laerm;66534;52.370;4.832;2023-03-23T01:03:14;45.48;42.48;53.77;;
69668;Laerm;66534;52.370;4.832;2023-03-23T01:03:48;42.26;38.37;46.08;;
69668;Laerm;66534;52.370;4.832;2023-03-23T01:04:19;41.27;38.34;49.22;;
69668;Laerm;66534;52.370;4.832;2023-03-23T01:04:51;44.01;39.02;54.07;;
69668;Laerm;66534;52.370;4.832;2023-03-23T01:05:22;43.72;41.06;51.22;;
69668;Laerm;66534;52.370;4.832;2023-03-23T01:05:52;44.56;40.96;56.04;;
69668;Laerm;66534;52.370;4.832;2023-03-23T01:06:23;42.09;38.48;49.41;;
69668;Laerm;66534;52.370;4.832;2023-03-23T01:06:54;44.42;39.68;51.93;;
69668;Laerm;66534;52.370;4.832;2023-03-23T01:07:26;42.86;39.42;47.83;;
69668;Laerm;66534;52.370;4.832;2023-03-23T01:07:59;41.99;38.57;50.74;;
69668;Laerm;66534;52.370;4.832;2023-03-23T01:08:29;42.75;38.00;47.28;;
69668;Laerm;66534;52.370;4.832;2023-03-23T01:09:02;41.78;37.69;48.01;;
69668;Laerm;66534;52.370;4.832;2023-03-23T01:09:33;40.84;37.62;45.00;;
69668;Laerm;66534;52.370;4.832;2023-03-23T01:10:04;41.75;38.85;49.64;;
69668;Laerm;66534;52.370;4.832;2023-03-23T01:10:34;43.47;39.45;55.99;;
69668;Laerm;66534;52.370;4.832;2023-03-23T01:11:08;43.06;39.15;55.96;;
69668;Laerm;66534;52.370;4.832;2023-03-23T01:11:39;42.36;38.95;52.20;;
69668;Laerm;66534;52.370;4.832;2023-03-23T01:12:10;43.68;39.37;50.12;;
69668;Laerm;66534;52.370;4.832;2023-03-23T01:12:40;46.38;41.32;66.27;;
69668;Laerm;66534;52.370;4.832;2023-03-23T01:13:11;49.29;39.49;71.31;;
69668;Laerm;66534;52.370;4.832;2023-03-23T01:13:42;45.04;40.95;53.02;;
69668;Laerm;66534;52.370;4.832;2023-03-23T01:14:14;43.77;39.97;56.01;;
69668;Laerm;66534;52.370;4.832;2023-03-23T01:14:45;43.79;40.18;48.55;;
69668;Laerm;66534;52.370;4.832;2023-03-23T01:15:18;43.19;38.63;51.53;;
69668;Laerm;66534;52.370;4.832;2023-03-23T01:15:49;42.77;39.26;48.12;;
69668;Laerm;66534;52.370;4.832;2023-03-23T01:16:20;51.01;40.33;59.02;;
69668;Laerm;66534;52.370;4.832;2023-03-23T01:16:51;45.43;38.54;56.67;;
69668;Laerm;66534;52.370;4.832;2023-03-23T01:17:21;42.16;38.86;50.02;;
69668;Laerm;66534;52.370;4.832;2023-03-23T01:17:52;44.61;39.30;59.05;;
69668;Laerm;66534;52.370;4.832;2023-03-23T01:18:22;43.94;38.98;48.53;;
69668;Laerm;66534;52.370;4.832;2023-03-23T01:18:53;43.24;39.57;51.92;;
69668;Laerm;66534;52.370;4.832;2023-03-23T01:19:24;43.27;39.33;61.38;;
69668;Laerm;66534;52.370;4.832;2023-03-23T01:19:55;43.92;40.16;48.47;;
69668;Laerm;66534;52.370;4.832;2023-03-23T01:20:26;44.31;38.51;52.12;;
69668;Laerm;66534;52.370;4.832;2023-03-23T01:21:04;41.93;39.28;45.76;;
69668;Laerm;66534;52.370;4.832;2023-03-23T01:21:35;40.63;37.76;50.79;;
69668;Laerm;66534;52.370;4.832;2023-03-23T01:22:06;41.90;38.95;54.14;;
69668;Laerm;66534;52.370;4.832;2023-03-23T01:22:37;43.89;40.21;51.00;;
69668;Laerm;66534;52.370;4.832;2023-03-23T01:23:08;41.96;38.59;49.57;;
69668;Laerm;66534;52.370;4.832;2023-03-23T01:23:39;44.48;39.27;54.95;;
69668;Laerm;66534;52.370;4.832;2023-03-23T01:24:09;41.74;39.10;50.34;;
69668;Laerm;66534;52.370;4.832;2023-03-23T01:24:40;40.18;37.67;46.78;;
69668;Laerm;66534;52.370;4.832;2023-03-23T01:25:12;41.74;37.72;47.80;;
69668;Laerm;66534;52.370;4.832;2023-03-23T01:25:42;43.10;39.68;51.20;;
69668;Laerm;66534;52.370;4.832;2023-03-23T01:26:18;42.48;40.20;47.46;;
69668;Laerm;66534;52.370;4.832;2023-03-23T01:26:49;41.49;38.34;51.92;;
69668;Laerm;66534;52.370;4.832;2023-03-23T01:27:19;42.34;39.57;50.72;;
69668;Laerm;66534;52.370;4.832;2023-03-23T01:27:50;42.68;39.38;53.83;;
69668;Laerm;66534;52.370;4.832;2023-03-23T01:28:20;44.44;40.38;51.22;;
69668;Laerm;66534;52.370;4.832;2023-03-23T01:28:51;43.39;40.06;49.43;;
69668;Laerm;66534;52.370;4.832;2023-03-23T01:29:22;42.71;39.40;52.56;;
69668;Laerm;66534;52.370;4.832;2023-03-23T01:29:53;43.50;40.54;56.29;;
69668;Laerm;66534;52.370;4.832;2023-03-23T01:30:24;42.66;39.53;47.90;;
69668;Laerm;66534;52.370;4.832;2023-03-23T01:31:03;42.71;39.33;49.84;;
69668;Laerm;66534;52.370;4.832;2023-03-23T01:31:33;43.12;38.22;49.37;;
69668;Laerm;66534;52.370;4.832;2023-03-23T01:32:06;42.67;38.48;51.06;;
69668;Laerm;66534;52.370;4.832;2023-03-23T01:32:37;40.73;38.32;46.22;;
69668;Laerm;66534;52.370;4.832;2023-03-23T01:33:07;39.87;37.40;46.28;;
69668;Laerm;66534;52.370;4.832;2023-03-23T01:33:39;44.19;38.78;52.29;;
69668;Laerm;66534;52.370;4.832;2023-03-23T01:34:10;43.43;40.39;46.59;;
69668;Laerm;66534;52.370;4.832;2023-03-23T01:34:40;41.61;39.46;51.07;;
69668;Laerm;66534;52.370;4.832;2023-03-23T01:35:12;43.56;39.95;50.72;;
69668;Laerm;66534;52.370;4.832;2023-03-23T01:35:43;44.07;39.49;53.13;;
69668;Laerm;66534;52.370;4.832;2023-03-23T01:36:17;43.52;39.95;52.35;;
69668;Laerm;66534;52.370;4.832;2023-03-23T01:36:48;42.25;39.29;49.14;;
69668;Laerm;66534;52.370;4.832;2023-03-23T01:37:18;46.08;38.11;62.07;;
69668;Laerm;66534;52.370;4.832;2023-03-23T01:37:50;40.71;37.78;53.34;;
69668;Laerm;66534;52.370;4.832;2023-03-23T01:38:20;44.71;38.93;60.69;;
69668;Laerm;66534;52.370;4.832;2023-03-23T01:38:51;43.58;40.94;50.39;;
69668;Laerm;66534;52.370;4.832;2023-03-23T01:39:22;42.71;39.55;52.16;;
69668;Laerm;66534;52.370;4.832;2023-03-23T01:39:53;43.39;40.84;46.82;;
69668;Laerm;66534;52.370;4.832;2023-03-23T01:40:26;43.01;39.33;56.68;;
69668;Laerm;66534;52.370;4.832;2023-03-23T01:40:58;45.27;41.59;48.87;;
69668;Laerm;66534;52.370;4.832;2023-03-23T01:41:28;44.04;39.46;48.69;;
69668;Laerm;66534;52.370;4.832;2023-03-23T01:41:58;41.82;39.39;47.97;;
69668;Laerm;66534;52.370;4.832;2023-03-23T01:42:32;40.70;37.79;49.12;;
69668;Laerm;66534;52.370;4.832;2023-03-23T01:43:10;44.53;39.14;51.74;;
69668;Laerm;66534;52.370;4.832;2023-03-23T01:44:00;41.94;38.98;51.72;;
69668;Laerm;66534;52.370;4.832;2023-03-23T01:45:50;44.01;40.22;52.07;;
69668;Laerm;66534;52.370;4.832;2023-03-23T01:46:21;43.07;40.05;52.62;;
69668;Laerm;66534;52.370;4.832;2023-03-23T01:46:52;40.84;38.19;49.85;;
69668;Laerm;66534;52.370;4.832;2023-03-23T01:47:24;40.00;36.68;44.03;;
69668;Laerm;66534;52.370;4.832;2023-03-23T01:48:27;40.62;37.25;51.13;;
69668;Laerm;66534;52.370;4.832;2023-03-23T01:49:11;41.43;38.65;50.02;;
69668;Laerm;66534;52.370;4.832;2023-03-23T01:49:46;41.39;37.40;45.45;;
69668;Laerm;66534;52.370;4.832;2023-03-23T01:50:20;40.65;36.58;46.76;;
69668;Laerm;66534;52.370;4.832;2023-03-23T01:51:06;40.10;37.60;48.22;;
69668;Laerm;66534;52.370;4.832;2023-03-23T01:51:42;41.08;38.06;49.61;;
69668;Laerm;66534;52.370;4.832;2023-03-23T01:52:17;40.14;37.74;53.20;;
69668;Laerm;66534;52.370;4.832;2023-03-23T01:52:51;39.95;37.67;42.77;;
69668;Laerm;66534;52.370;4.832;2023-03-23T01:53:26;42.35;37.83;50.65;;
69668;Laerm;66534;52.370;4.832;2023-03-23T01:54:01;43.41;39.17;50.19;;
69668;Laerm;66534;52.370;4.832;2023-03-23T01:54:35;50.50;42.62;62.05;;
69668;Laerm;66534;52.370;4.832;2023-03-23T01:55:08;46.85;39.69;58.26;;
69668;Laerm;66534;52.370;4.832;2023-03-23T01:55:41;41.23;38.49;46.21;;
69668;Laerm;66534;52.370;4.832;2023-03-23T01:56:14;42.54;38.29;49.97;;
69668;Laerm;66534;52.370;4.832;2023-03-23T01:56:59;45.65;39.73;58.99;;
69668;Laerm;66534;52.370;4.832;2023-03-23T01:57:31;41.89;39.00;46.92;;
69668;Laerm;66534;52.370;4.832;2023-03-23T01:58:02;40.58;38.09;46.40;;
69668;Laerm;66534;52.370;4.832;2023-03-23T01:58:34;40.87;37.78;47.20;;
69668;Laerm;66534;52.370;4.832;2023-03-23T01:59:08;42.50;37.62;49.06;;
69668;Laerm;66534;52.370;4.832;2023-03-23T01:59:41;45.69;39.73;58.43;;
69668;Laerm;66534;52.370;4.832;2023-03-23T02:00:15;40.36;38.02;46.23;;
69668;Laerm;66534;52.370;4.832;2023-03-23T02:00:46;40.90;38.19;46.20;;
69668;Laerm;66534;52.370;4.832;2023-03-23T02:01:18;41.54;37.89;51.85;;
69668;Laerm;66534;52.370;4.832;2023-03-23T02:01:49;42.31;38.19;49.26;;
69668;Laerm;66534;52.370;4.832;2023-03-23T02:02:24;42.25;39.29;46.93;;
69668;Laerm;66534;52.370;4.832;2023-03-23T02:02:55;42.04;38.16;51.27;;
69668;Laerm;66534;52.370;4.832;2023-03-23T02:03:27;42.86;38.25;48.45;;
69668;Laerm;66534;52.370;4.832;2023-03-23T02:03:59;41.99;38.49;49.41;;
69668;Laerm;66534;52.370;4.832;2023-03-23T02:04:31;41.81;38.93;51.88;;
69668;Laerm;66534;52.370;4.832;2023-03-23T02:05:12;42.22;39.86;47.20;;
69668;Laerm;66534;52.370;4.832;2023-03-23T02:05:43;44.67;41.60;48.88;;
69668;Laerm;66534;52.370;4.832;2023-03-23T02:06:14;45.48;41.66;52.79;;
69668;Laerm;66534;52.370;4.832;2023-03-23T02:06:50;44.28;40.29;48.66;;
69668;Laerm;66534;52.370;4.832;2023-03-23T02:07:22;43.59;40.04;50.86;;
69668;Laerm;66534;52.370;4.832;2023-03-23T02:07:53;44.88;40.38;55.19;;
69668;Laerm;66534;52.370;4.832;2023-03-23T02:08:27;42.27;39.06;47.05;;
69668;Laerm;66534;52.370;4.832;2023-03-23T02:08:58;43.74;40.42;46.42;;
69668;Laerm;66534;52.370;4.832;2023-03-23T02:09:29;49.46;41.95;58.55;;
69668;Laerm;66534;52.370;4.832;2023-03-23T02:10:00;43.76;39.48;51.17;;
69668;Laerm;66534;52.370;4.832;2023-03-23T02:10:32;41.92;38.81;48.43;;
69668;Laerm;66534;52.370;4.832;2023-03-23T02:11:12;41.74;38.18;48.42;;
69668;Laerm;66534;52.370;4.832;2023-03-23T02:11:44;42.53;38.05;50.44;;
69668;Laerm;66534;52.370;4.832;2023-03-23T02:12:15;41.42;37.97;51.80;;
69668;Laerm;66534;52.370;4.832;2023-03-23T02:12:45;44.57;38.86;54.61;;
69668;Laerm;66534;52.370;4.832;2023-03-23T02:13:16;43.82;39.89;55.32;;
69668;Laerm;66534;52.370;4.832;2023-03-23T02:13:48;41.98;39.06;48.18;;
69668;Laerm;66534;52.370;4.832;2023-03-23T02:14:20;45.21;40.03;56.12;;
69668;Laerm;66534;52.370;4.832;2023-03-23T02:14:51;44.60;40.56;53.93;;
69668;Laerm;66534;52.370;4.832;2023-03-23T02:15:25;41.91;39.11;45.68;;
69668;Laerm;66534;52.370;4.832;2023-03-23T02:16:06;41.87;38.18;52.36;;
69668;Laerm;66534;52.370;4.832;2023-03-23T02:18:31;42.62;38.38;54.01;;
69668;Laerm;66534;52.370;4.832;2023-03-23T02:19:25;45.01;40.06;52.69;;
69668;Laerm;66534;52.370;4.832;2023-03-23T02:20:13;42.83;39.69;50.76;;
69668;Laerm;66534;52.370;4.832;2023-03-23T02:21:15;39.96;37.43;46.20;;
69668;Laerm;66534;52.370;4.832;2023-03-23T02:21:52;41.64;37.68;50.06;;
69668;Laerm;66534;52.370;4.832;2023-03-23T02:32:16;42.56;38.96;50.21;;
69668;Laerm;66534;52.370;4.832;2023-03-23T02:33:53;43.30;40.12;55.55;;
69668;Laerm;66534;52.370;4.832;2023-03-23T02:34:32;42.26;39.15;51.98;;
69668;Laerm;66534;52.370;4.832;2023-03-23T02:35:08;43.31;39.32;50.45;;
69668;Laerm;66534;52.370;4.832;2023-03-23T02:35:53;42.34;39.19;47.86;;
69668;Laerm;66534;52.370;4.832;2023-03-23T02:36:34;43.43;39.40;58.31;;
69668;Laerm;66534;52.370;4.832;2023-03-23T02:37:11;45.21;39.83;53.08;;
69668;Laerm;66534;52.370;4.832;2023-03-23T02:37:55;45.00;40.22;66.68;;
69668;Laerm;66534;52.370;4.832;2023-03-23T02:38:35;41.87;38.69;51.74;;
69668;Laerm;66534;52.370;4.832;2023-03-23T02:39:14;43.28;39.90;51.73;;
69668;Laerm;66534;52.370;4.832;2023-03-23T02:39:52;48.14;42.14;61.68;;
69668;Laerm;66534;52.370;4.832;2023-03-23T02:40:27;47.00;43.35;57.30;;
69668;Laerm;66534;52.370;4.832;2023-03-23T02:41:00;45.21;41.95;53.86;;
69668;Laerm;66534;52.370;4.832;2023-03-23T02:41:38;51.17;43.57;65.47;;
69668;Laerm;66534;52.370;4.832;2023-03-23T02:42:13;47.64;43.54;62.11;;
69668;Laerm;66534;52.370;4.832;2023-03-23T02:42:49;45.87;42.36;51.46;;
69668;Laerm;66534;52.370;4.832;2023-03-23T02:43:24;45.42;42.20;51.06;;
69668;Laerm;66534;52.370;4.832;2023-03-23T02:43:57;45.87;42.04;55.38;;
69668;Laerm;66534;52.370;4.832;2023-03-23T02:44:30;47.33;43.73;52.40;;
69668;Laerm;66534;52.370;4.832;2023-03-23T02:45:07;44.06;39.76;50.01;;
69668;Laerm;66534;52.370;4.832;2023-03-23T02:45:41;41.95;39.47;48.35;;
69668;Laerm;66534;52.370;4.832;2023-03-23T02:46:14;42.61;40.17;49.14;;
69668;Laerm;66534;52.370;4.832;2023-03-23T02:46:46;47.21;42.25;58.61;;
69668;Laerm;66534;52.370;4.832;2023-03-23T02:47:21;46.82;43.61;50.43;;
69668;Laerm;66534;52.370;4.832;2023-03-23T02:47:54;52.02;45.19;61.51;;
69668;Laerm;66534;52.370;4.832;2023-03-23T02:48:28;54.19;47.00;72.55;;
69668;Laerm;66534;52.370;4.832;2023-03-23T02:49:02;49.20;44.52;53.01;;
69668;Laerm;66534;52.370;4.832;2023-03-23T02:49:36;49.38;44.91;55.00;;
69668;Laerm;66534;52.370;4.832;2023-03-23T02:50:11;46.98;43.06;56.05;;
69668;Laerm;66534;52.370;4.832;2023-03-23T02:50:46;45.75;42.08;56.43;;
69668;Laerm;66534;52.370;4.832;2023-03-23T02:51:20;44.92;41.38;49.01;;
69668;Laerm;66534;52.370;4.832;2023-03-23T02:51:54;44.79;42.34;51.72;;
69668;Laerm;66534;52.370;4.832;2023-03-23T02:52:29;46.23;43.29;52.73;;
69668;Laerm;66534;52.370;4.832;2023-03-23T02:53:01;44.53;41.72;51.29;;
69668;Laerm;66534;52.370;4.832;2023-03-23T02:53:34;46.94;42.67;57.06;;
69668;Laerm;66534;52.370;4.832;2023-03-23T02:54:07;51.53;44.35;59.52;;
69668;Laerm;66534;52.370;4.832;2023-03-23T02:54:38;56.07;51.59;65.18;;
69668;Laerm;66534;52.370;4.832;2023-03-23T02:55:11;52.50;46.59;61.98;;
69668;Laerm;66534;52.370;4.832;2023-03-23T02:55:43;50.76;43.14;64.84;;
69668;Laerm;66534;52.370;4.832;2023-03-23T02:56:14;45.04;41.30;54.90;;
69668;Laerm;66534;52.370;4.832;2023-03-23T02:56:46;45.07;41.10;54.32;;
69668;Laerm;66534;52.370;4.832;2023-03-23T02:57:17;46.34;42.38;54.72;;
69668;Laerm;66534;52.370;4.832;2023-03-23T02:57:51;49.61;43.30;64.69;;
69668;Laerm;66534;52.370;4.832;2023-03-23T02:58:22;47.76;43.34;63.20;;
69668;Laerm;66534;52.370;4.832;2023-03-23T02:58:54;55.09;46.75;71.69;;
69668;Laerm;66534;52.370;4.832;2023-03-23T02:59:24;52.06;43.67;70.20;;
69668;Laerm;66534;52.370;4.832;2023-03-23T02:59:55;46.35;42.73;54.71;;
69668;Laerm;66534;52.370;4.832;2023-03-23T03:00:26;46.39;40.90;59.54;;
69668;Laerm;66534;52.370;4.832;2023-03-23T03:00:56;43.46;40.68;49.40;;
69668;Laerm;66534;52.370;4.832;2023-03-23T03:02:48;55.91;45.99;73.09;;
69668;Laerm;66534;52.370;4.832;2023-03-23T03:03:26;55.25;44.71;78.79;;
69668;Laerm;66534;52.370;4.832;2023-03-23T03:04:00;49.02;45.27;66.84;;
69668;Laerm;66534;52.370;4.832;2023-03-23T03:04:34;49.16;44.36;70.83;;
69668;Laerm;66534;52.370;4.832;2023-03-23T03:06:30;51.10;45.82;59.81;;
69668;Laerm;66534;52.370;4.832;2023-03-23T03:10:06;48.77;44.03;57.90;;
69668;Laerm;66534;52.370;4.832;2023-03-23T03:10:48;47.06;42.79;58.89;;
69668;Laerm;66534;52.370;4.832;2023-03-23T03:11:21;44.58;42.25;49.42;;
69668;Laerm;66534;52.370;4.832;2023-03-23T03:12:06;44.97;41.56;51.94;;
69668;Laerm;66534;52.370;4.832;2023-03-23T03:14:19;48.02;42.41;69.83;;
69668;Laerm;66534;52.370;4.832;2023-03-23T03:16:47;53.66;46.63;78.65;;
69668;Laerm;66534;52.370;4.832;2023-03-23T03:17:24;46.97;41.69;63.45;;
69668;Laerm;66534;52.370;4.832;2023-03-23T03:18:28;44.82;40.74;70.73;;
69668;Laerm;66534;52.370;4.832;2023-03-23T03:19:07;43.55;40.28;58.98;;
69668;Laerm;66534;52.370;4.832;2023-03-23T03:19:41;51.04;39.40;80.35;;
69668;Laerm;66534;52.370;4.832;2023-03-23T03:20:13;44.32;40.29;56.46;;
69668;Laerm;66534;52.370;4.832;2023-03-23T03:20:48;50.28;44.44;69.35;;
69668;Laerm;66534;52.370;4.832;2023-03-23T03:21:21;53.26;43.71;81.47;;
69668;Laerm;66534;52.370;4.832;2023-03-23T03:21:58;51.76;44.59;75.80;;
69668;Laerm;66534;52.370;4.832;2023-03-23T03:22:29;48.24;44.01;67.04;;
69668;Laerm;66534;52.370;4.832;2023-03-23T03:23:01;44.88;41.82;61.49;;
69668;Laerm;66534;52.370;4.832;2023-03-23T03:23:33;49.21;45.30;59.16;;
69668;Laerm;66534;52.370;4.832;2023-03-23T03:24:06;52.50;46.96;63.70;;
69668;Laerm;66534;52.370;4.832;2023-03-23T03:24:41;54.35;48.23;73.09;;
69668;Laerm;66534;52.370;4.832;2023-03-23T03:25:15;56.91;51.43;80.61;;
69668;Laerm;66534;52.370;4.832;2023-03-23T03:25:47;67.18;55.94;82.99;;
69668;Laerm;66534;52.370;4.832;2023-03-23T03:26:19;67.97;53.72;83.81;;
69668;Laerm;66534;52.370;4.832;2023-03-23T03:26:52;56.70;49.66;75.03;;
69668;Laerm;66534;52.370;4.832;2023-03-23T03:27:24;58.91;51.76;80.60;;
69668;Laerm;66534;52.370;4.832;2023-03-23T03:27:56;56.34;48.62;81.59;;
69668;Laerm;66534;52.370;4.832;2023-03-23T03:28:27;54.75;51.71;68.61;;